^^

Nearby METAR Reports


EGAC - Belfast Harbour, United Kingdom
Distance from station: W 8mi, 13km
Updated: 16/08/2018 14:20
Light rain, Showers, Partly cloudy
Light rain, Showers, Partly cloudy
 Wind from WSW
Wind: WSW 20 mph , 31 km/h
Temperature: 59°F , 15°C
Dew Point: 50°F , 10°C
Humidity: 72%
Barometer: 1008 hPa
Summary: Light rain, Showers
Clouds: Partly cloudy
Visibility: 6 miles , 10 km
Cloud details: Few Clouds 2700 ft
Partly cloudy 3100 ft
2018/08/16 13:20 EGAC 161320Z 24017KT 9999 -SHRA FEW027CB SCT031 15/10 Q1008
EGAA - Belfast/Aldergro, United Kingdom
Distance from station: W 22mi, 35km
Updated: 16/08/2018 14:20
Partly cloudy
Partly cloudy
 Wind from WSW
Wind: WSW 15 mph , 24 km/h
Temperature: 59°F , 15°C
Dew Point: 55°F , 13°C
Humidity: 88%
Barometer: 1009 hPa
Clouds: Partly cloudy
Visibility: 6 miles , 10 km
Cloud details: Partly cloudy 1400 ft
Partly cloudy 3400 ft
2018/08/16 13:20 EGAA 161320Z 24013KT 9999 SCT014 SCT034CB 15/13 Q1009
 
EGNS - Isle Of Man/Rona, United Kingdom
Distance from station: SE 57mi, 91km
Updated: 16/08/2018 14:20
Few Clouds
Few Clouds
 Wind from WSW
Wind: WSW 16 mph , 26 km/h
Temperature: 57°F , 14°C
Dew Point: 52°F , 11°C
Humidity: 82%
Barometer: 1009 hPa
Clouds: Few Clouds
Visibility: 6 miles , 10 km
Cloud details: Few Clouds 2000 ft
2018/08/16 13:20 EGNS 161320Z 24014KT 210V270 9999 FEW020CB 14/11 Q1009 NOSIG
EGPK - Prestwick(Civ/Na, United Kingdom
Distance from station: NE 74mi, 119km
Updated: 16/08/2018 14:20
Partly cloudy
Partly cloudy
 Wind from SW
Wind: SW 20 mph , 31 km/h
Temperature: 63°F , 17°C
Dew Point: 52°F , 11°C
Humidity: 68%
Barometer: 1007 hPa
Clouds: Partly cloudy
Visibility: 6 miles , 10 km
Cloud details: Few Clouds 2300 ft
Partly cloudy 3000 ft
2018/08/16 13:20 EGPK 161320Z 22017KT 9999 FEW023 SCT030 17/11 Q1007
 
EIDW - Dublin Airport, Ireland
Distance from station: SSW 87mi, 141km
Updated: 16/08/2018 14:30
Light rain, Showers, Partly cloudy
Light rain, Showers, Partly cloudy
 Wind from W
Wind: W 18 mph , 30 km/h
Temperature: 66°F , 19°C
Dew Point: 48°F , 9°C
Humidity: 52%
Barometer: 1010 hPa
Summary: Light rain, Showers
Clouds: Partly cloudy
Visibility: 6 miles , 10 km
Cloud details: Few Clouds 1300 ft
Partly cloudy 2000 ft
Partly cloudy 3000 ft
2018/08/16 13:30 EIDW 161330Z 27016KT 9999 -SHRA FEW013 SCT020CB SCT030 19/09 Q1010 NOSIG
EGPF - Glasgow Airport, United Kingdom
Distance from station: NNE 98mi, 158km
Updated: 16/08/2018 14:20
Thunderstorm
Thunderstorm
 Wind from SW
Wind: SW 18 mph , 30 km/h
Temperature: 59°F , 15°C
Dew Point: 54°F , 12°C
Humidity: 82%
Barometer: 1006 hPa
Clouds: Thunderstorm
Visibility: 6 miles , 10 km
Cloud details: Partly cloudy 2200 ft
Mostly cloudy 4200 ft
2018/08/16 13:20 EGPF 161320Z AUTO 23016KT 9999 SCT022/// BKN042/// //////TCU 15/12 Q1006